sensor_id;sensor_type;location;lat;lon;timestamp;P1;durP1;ratioP1;P2;durP2;ratioP2
3337;SDS011;1682;49.286;10.788;2022-12-18T00:02:21;45.17;;;27.87;;
3337;SDS011;1682;49.286;10.788;2022-12-18T00:04:48;47.90;;;29.47;;
3337;SDS011;1682;49.286;10.788;2022-12-18T00:07:15;40.10;;;24.57;;
3337;SDS011;1682;49.286;10.788;2022-12-18T00:09:42;46.87;;;29.03;;
3337;SDS011;1682;49.286;10.788;2022-12-18T00:12:09;49.37;;;26.70;;
3337;SDS011;1682;49.286;10.788;2022-12-18T00:14:36;49.37;;;26.57;;
3337;SDS011;1682;49.286;10.788;2022-12-18T00:17:05;48.00;;;25.67;;
3337;SDS011;1682;49.286;10.788;2022-12-18T00:19:32;46.20;;;27.00;;
3337;SDS011;1682;49.286;10.788;2022-12-18T00:21:59;44.40;;;24.20;;
3337;SDS011;1682;49.286;10.788;2022-12-18T00:24:27;45.20;;;25.70;;
3337;SDS011;1682;49.286;10.788;2022-12-18T00:26:54;41.97;;;25.27;;
3337;SDS011;1682;49.286;10.788;2022-12-18T00:29:21;40.97;;;25.93;;
3337;SDS011;1682;49.286;10.788;2022-12-18T00:31:48;44.50;;;28.20;;
3337;SDS011;1682;49.286;10.788;2022-12-18T00:34:17;62.17;;;29.83;;
3337;SDS011;1682;49.286;10.788;2022-12-18T00:36:47;50.37;;;27.00;;
3337;SDS011;1682;49.286;10.788;2022-12-18T00:39:14;45.00;;;22.87;;
3337;SDS011;1682;49.286;10.788;2022-12-18T00:41:41;46.33;;;25.97;;
3337;SDS011;1682;49.286;10.788;2022-12-18T00:44:26;44.70;;;23.60;;
3337;SDS011;1682;49.286;10.788;2022-12-18T00:46:53;41.07;;;24.57;;
3337;SDS011;1682;49.286;10.788;2022-12-18T00:49:22;37.40;;;23.07;;
3337;SDS011;1682;49.286;10.788;2022-12-18T00:51:49;43.67;;;25.27;;
3337;SDS011;1682;49.286;10.788;2022-12-18T00:54:16;45.30;;;24.23;;
3337;SDS011;1682;49.286;10.788;2022-12-18T00:56:44;45.27;;;24.20;;
3337;SDS011;1682;49.286;10.788;2022-12-18T00:59:11;45.77;;;25.23;;
3337;SDS011;1682;49.286;10.788;2022-12-18T01:01:38;36.20;;;23.90;;
3337;SDS011;1682;49.286;10.788;2022-12-18T01:04:05;42.73;;;24.53;;
3337;SDS011;1682;49.286;10.788;2022-12-18T01:06:34;46.17;;;24.27;;
3337;SDS011;1682;49.286;10.788;2022-12-18T01:09:01;49.60;;;26.67;;
3337;SDS011;1682;49.286;10.788;2022-12-18T01:11:28;37.97;;;23.93;;
3337;SDS011;1682;49.286;10.788;2022-12-18T01:14:02;33.70;;;22.10;;
3337;SDS011;1682;49.286;10.788;2022-12-18T01:16:29;39.90;;;22.90;;
3337;SDS011;1682;49.286;10.788;2022-12-18T01:18:56;38.73;;;22.50;;
3337;SDS011;1682;49.286;10.788;2022-12-18T01:21:23;42.37;;;24.03;;
3337;SDS011;1682;49.286;10.788;2022-12-18T01:23:53;51.00;;;25.30;;
3337;SDS011;1682;49.286;10.788;2022-12-18T01:26:20;44.23;;;25.33;;
3337;SDS011;1682;49.286;10.788;2022-12-18T01:28:47;40.13;;;22.77;;
3337;SDS011;1682;49.286;10.788;2022-12-18T01:31:16;51.57;;;27.03;;
3337;SDS011;1682;49.286;10.788;2022-12-18T01:33:43;51.60;;;27.77;;
3337;SDS011;1682;49.286;10.788;2022-12-18T01:36:14;68.40;;;27.10;;
3337;SDS011;1682;49.286;10.788;2022-12-18T01:38:42;58.03;;;25.13;;
3337;SDS011;1682;49.286;10.788;2022-12-18T01:41:10;65.27;;;25.60;;
3337;SDS011;1682;49.286;10.788;2022-12-18T01:43:41;56.87;;;24.47;;
3337;SDS011;1682;49.286;10.788;2022-12-18T01:46:09;62.67;;;25.53;;
3337;SDS011;1682;49.286;10.788;2022-12-18T01:48:36;59.70;;;23.33;;
3337;SDS011;1682;49.286;10.788;2022-12-18T01:51:04;83.47;;;23.57;;
3337;SDS011;1682;49.286;10.788;2022-12-18T01:53:31;64.70;;;25.73;;
3337;SDS011;1682;49.286;10.788;2022-12-18T01:55:58;49.67;;;23.00;;
3337;SDS011;1682;49.286;10.788;2022-12-18T01:58:30;66.90;;;24.33;;
3337;SDS011;1682;49.286;10.788;2022-12-18T02:00:59;56.97;;;23.57;;
3337;SDS011;1682;49.286;10.788;2022-12-18T02:03:26;50.33;;;24.13;;
3337;SDS011;1682;49.286;10.788;2022-12-18T02:05:55;44.93;;;23.27;;
3337;SDS011;1682;49.286;10.788;2022-12-18T02:08:27;51.40;;;24.03;;
3337;SDS011;1682;49.286;10.788;2022-12-18T02:10:58;73.60;;;26.87;;
3337;SDS011;1682;49.286;10.788;2022-12-18T02:13:30;56.87;;;25.80;;
3337;SDS011;1682;49.286;10.788;2022-12-18T02:16:00;43.70;;;22.13;;
3337;SDS011;1682;49.286;10.788;2022-12-18T02:18:32;57.33;;;23.97;;
3337;SDS011;1682;49.286;10.788;2022-12-18T02:21:00;67.13;;;25.70;;
3337;SDS011;1682;49.286;10.788;2022-12-18T02:23:36;71.70;;;22.57;;
3337;SDS011;1682;49.286;10.788;2022-12-18T02:26:09;52.73;;;22.50;;
3337;SDS011;1682;49.286;10.788;2022-12-18T02:28:40;65.53;;;26.60;;
3337;SDS011;1682;49.286;10.788;2022-12-18T02:31:09;71.40;;;25.23;;
3337;SDS011;1682;49.286;10.788;2022-12-18T02:33:38;53.53;;;28.97;;
3337;SDS011;1682;49.286;10.788;2022-12-18T02:36:06;47.03;;;23.53;;
3337;SDS011;1682;49.286;10.788;2022-12-18T02:38:34;47.53;;;23.30;;
3337;SDS011;1682;49.286;10.788;2022-12-18T02:41:02;51.70;;;22.10;;
3337;SDS011;1682;49.286;10.788;2022-12-18T02:43:31;55.10;;;22.97;;
3337;SDS011;1682;49.286;10.788;2022-12-18T02:45:59;48.93;;;23.80;;
3337;SDS011;1682;49.286;10.788;2022-12-18T02:48:28;43.07;;;22.60;;
3337;SDS011;1682;49.286;10.788;2022-12-18T02:50:58;69.93;;;26.33;;
3337;SDS011;1682;49.286;10.788;2022-12-18T02:53:28;51.70;;;22.87;;
3337;SDS011;1682;49.286;10.788;2022-12-18T02:56:01;39.83;;;20.43;;
3337;SDS011;1682;49.286;10.788;2022-12-18T02:58:33;42.63;;;21.83;;
3337;SDS011;1682;49.286;10.788;2022-12-18T03:01:01;51.20;;;26.37;;
3337;SDS011;1682;49.286;10.788;2022-12-18T03:03:31;46.97;;;20.83;;
3337;SDS011;1682;49.286;10.788;2022-12-18T03:06:02;44.00;;;23.07;;
3337;SDS011;1682;49.286;10.788;2022-12-18T03:08:31;70.90;;;34.10;;
3337;SDS011;1682;49.286;10.788;2022-12-18T03:11:01;44.67;;;22.27;;
3337;SDS011;1682;49.286;10.788;2022-12-18T03:13:30;40.47;;;22.03;;
3337;SDS011;1682;49.286;10.788;2022-12-18T03:15:59;45.43;;;22.10;;
3337;SDS011;1682;49.286;10.788;2022-12-18T03:18:29;68.57;;;32.27;;
3337;SDS011;1682;49.286;10.788;2022-12-18T03:20:58;67.07;;;29.53;;
3337;SDS011;1682;49.286;10.788;2022-12-18T03:23:27;52.37;;;22.83;;
3337;SDS011;1682;49.286;10.788;2022-12-18T03:25:57;54.50;;;24.20;;
3337;SDS011;1682;49.286;10.788;2022-12-18T03:28:26;54.90;;;25.13;;
3337;SDS011;1682;49.286;10.788;2022-12-18T03:30:55;46.40;;;20.70;;
3337;SDS011;1682;49.286;10.788;2022-12-18T03:33:25;41.50;;;21.60;;
3337;SDS011;1682;49.286;10.788;2022-12-18T03:35:54;38.30;;;20.60;;
3337;SDS011;1682;49.286;10.788;2022-12-18T03:38:22;37.50;;;22.87;;
3337;SDS011;1682;49.286;10.788;2022-12-18T03:40:51;42.80;;;22.90;;
3337;SDS011;1682;49.286;10.788;2022-12-18T03:43:26;40.37;;;22.90;;
3337;SDS011;1682;49.286;10.788;2022-12-18T03:46:02;51.87;;;23.60;;
3337;SDS011;1682;49.286;10.788;2022-12-18T03:48:32;43.13;;;20.67;;
3337;SDS011;1682;49.286;10.788;2022-12-18T03:51:05;33.97;;;20.00;;
3337;SDS011;1682;49.286;10.788;2022-12-18T03:53:36;39.93;;;19.40;;
3337;SDS011;1682;49.286;10.788;2022-12-18T03:56:04;34.60;;;19.17;;
3337;SDS011;1682;49.286;10.788;2022-12-18T03:58:32;38.73;;;20.80;;
3337;SDS011;1682;49.286;10.788;2022-12-18T04:01:01;42.10;;;17.10;;
3337;SDS011;1682;49.286;10.788;2022-12-18T04:03:29;41.00;;;19.40;;
3337;SDS011;1682;49.286;10.788;2022-12-18T04:05:59;35.10;;;17.60;;
3337;SDS011;1682;49.286;10.788;2022-12-18T04:08:27;38.43;;;17.83;;
3337;SDS011;1682;49.286;10.788;2022-12-18T04:10:55;44.43;;;16.67;;
3337;SDS011;1682;49.286;10.788;2022-12-18T04:13:22;45.20;;;21.20;;
3337;SDS011;1682;49.286;10.788;2022-12-18T04:15:53;41.50;;;20.60;;
3337;SDS011;1682;49.286;10.788;2022-12-18T04:18:31;35.60;;;16.63;;
3337;SDS011;1682;49.286;10.788;2022-12-18T04:21:00;26.37;;;14.80;;
3337;SDS011;1682;49.286;10.788;2022-12-18T04:23:27;38.47;;;17.50;;
3337;SDS011;1682;49.286;10.788;2022-12-18T04:25:54;41.67;;;18.37;;
3337;SDS011;1682;49.286;10.788;2022-12-18T04:28:21;38.17;;;17.63;;
3337;SDS011;1682;49.286;10.788;2022-12-18T04:30:49;29.10;;;18.10;;
3337;SDS011;1682;49.286;10.788;2022-12-18T04:33:16;43.87;;;18.27;;
3337;SDS011;1682;49.286;10.788;2022-12-18T04:35:43;32.53;;;16.07;;
3337;SDS011;1682;49.286;10.788;2022-12-18T04:38:12;39.07;;;18.43;;
3337;SDS011;1682;49.286;10.788;2022-12-18T04:40:39;39.37;;;18.33;;
3337;SDS011;1682;49.286;10.788;2022-12-18T04:43:06;39.97;;;18.93;;
3337;SDS011;1682;49.286;10.788;2022-12-18T04:45:33;42.63;;;19.57;;
3337;SDS011;1682;49.286;10.788;2022-12-18T04:48:01;36.90;;;16.90;;
3337;SDS011;1682;49.286;10.788;2022-12-18T04:50:29;34.10;;;16.27;;
3337;SDS011;1682;49.286;10.788;2022-12-18T04:52:56;41.93;;;18.83;;
3337;SDS011;1682;49.286;10.788;2022-12-18T04:55:25;41.47;;;17.63;;
3337;SDS011;1682;49.286;10.788;2022-12-18T04:57:52;32.57;;;16.30;;
3337;SDS011;1682;49.286;10.788;2022-12-18T05:00:20;37.33;;;18.47;;
3337;SDS011;1682;49.286;10.788;2022-12-18T05:02:47;33.47;;;17.83;;
3337;SDS011;1682;49.286;10.788;2022-12-18T05:05:14;39.63;;;18.17;;
3337;SDS011;1682;49.286;10.788;2022-12-18T05:07:41;32.07;;;16.30;;
3337;SDS011;1682;49.286;10.788;2022-12-18T05:10:08;30.07;;;15.77;;
3337;SDS011;1682;49.286;10.788;2022-12-18T05:12:37;39.40;;;19.57;;
3337;SDS011;1682;49.286;10.788;2022-12-18T05:15:23;28.57;;;15.73;;
3337;SDS011;1682;49.286;10.788;2022-12-18T05:17:50;35.63;;;17.57;;
3337;SDS011;1682;49.286;10.788;2022-12-18T05:20:17;44.80;;;20.23;;
3337;SDS011;1682;49.286;10.788;2022-12-18T05:22:44;29.50;;;14.00;;
3337;SDS011;1682;49.286;10.788;2022-12-18T05:25:12;31.60;;;15.67;;
3337;SDS011;1682;49.286;10.788;2022-12-18T05:27:40;32.17;;;17.27;;
3337;SDS011;1682;49.286;10.788;2022-12-18T05:30:08;35.00;;;16.50;;
3337;SDS011;1682;49.286;10.788;2022-12-18T05:32:35;34.07;;;16.87;;
3337;SDS011;1682;49.286;10.788;2022-12-18T05:35:03;32.53;;;17.57;;
3337;SDS011;1682;49.286;10.788;2022-12-18T05:37:30;29.57;;;15.37;;
3337;SDS011;1682;49.286;10.788;2022-12-18T05:39:57;36.20;;;16.90;;
3337;SDS011;1682;49.286;10.788;2022-12-18T05:42:24;36.33;;;16.43;;
3337;SDS011;1682;49.286;10.788;2022-12-18T05:44:53;39.97;;;17.83;;
3337;SDS011;1682;49.286;10.788;2022-12-18T05:47:20;36.90;;;17.20;;
3337;SDS011;1682;49.286;10.788;2022-12-18T05:49:47;30.00;;;15.50;;
3337;SDS011;1682;49.286;10.788;2022-12-18T05:52:15;32.00;;;17.20;;
3337;SDS011;1682;49.286;10.788;2022-12-18T05:54:42;34.77;;;18.90;;
3337;SDS011;1682;49.286;10.788;2022-12-18T05:57:09;29.90;;;18.33;;
3337;SDS011;1682;49.286;10.788;2022-12-18T05:59:36;33.40;;;16.77;;
3337;SDS011;1682;49.286;10.788;2022-12-18T06:02:05;37.10;;;16.10;;
3337;SDS011;1682;49.286;10.788;2022-12-18T06:04:32;34.60;;;16.40;;
3337;SDS011;1682;49.286;10.788;2022-12-18T06:06:59;40.90;;;16.73;;
3337;SDS011;1682;49.286;10.788;2022-12-18T06:09:30;30.77;;;15.87;;
3337;SDS011;1682;49.286;10.788;2022-12-18T06:11:58;24.63;;;14.03;;
3337;SDS011;1682;49.286;10.788;2022-12-18T06:14:25;31.53;;;16.00;;
3337;SDS011;1682;49.286;10.788;2022-12-18T06:16:52;29.40;;;14.47;;
3337;SDS011;1682;49.286;10.788;2022-12-18T06:19:21;34.23;;;16.53;;
3337;SDS011;1682;49.286;10.788;2022-12-18T06:21:48;34.60;;;17.70;;
3337;SDS011;1682;49.286;10.788;2022-12-18T06:24:16;40.77;;;17.00;;
3337;SDS011;1682;49.286;10.788;2022-12-18T06:26:43;30.40;;;14.90;;
3337;SDS011;1682;49.286;10.788;2022-12-18T06:29:10;34.37;;;16.00;;
3337;SDS011;1682;49.286;10.788;2022-12-18T06:31:37;36.27;;;17.07;;
3337;SDS011;1682;49.286;10.788;2022-12-18T06:34:05;39.60;;;20.77;;
3337;SDS011;1682;49.286;10.788;2022-12-18T06:36:33;42.93;;;18.87;;
3337;SDS011;1682;49.286;10.788;2022-12-18T06:39:00;34.67;;;16.43;;
3337;SDS011;1682;49.286;10.788;2022-12-18T06:41:28;30.17;;;18.47;;
3337;SDS011;1682;49.286;10.788;2022-12-18T06:43:55;34.10;;;19.40;;
3337;SDS011;1682;49.286;10.788;2022-12-18T06:46:22;33.30;;;16.87;;
3337;SDS011;1682;49.286;10.788;2022-12-18T06:48:49;29.70;;;15.53;;
3337;SDS011;1682;49.286;10.788;2022-12-18T06:51:18;33.43;;;15.30;;
3337;SDS011;1682;49.286;10.788;2022-12-18T06:53:46;44.87;;;17.90;;
3337;SDS011;1682;49.286;10.788;2022-12-18T06:56:14;34.73;;;16.33;;
3337;SDS011;1682;49.286;10.788;2022-12-18T06:58:41;39.67;;;20.07;;
3337;SDS011;1682;49.286;10.788;2022-12-18T07:01:09;34.90;;;15.33;;
3337;SDS011;1682;49.286;10.788;2022-12-18T07:03:37;31.17;;;16.20;;
3337;SDS011;1682;49.286;10.788;2022-12-18T07:06:04;37.70;;;16.77;;
3337;SDS011;1682;49.286;10.788;2022-12-18T07:08:32;30.53;;;15.20;;
3337;SDS011;1682;49.286;10.788;2022-12-18T07:11:03;32.83;;;15.10;;
3337;SDS011;1682;49.286;10.788;2022-12-18T07:13:31;34.67;;;15.27;;
3337;SDS011;1682;49.286;10.788;2022-12-18T07:16:03;30.43;;;15.80;;
3337;SDS011;1682;49.286;10.788;2022-12-18T07:18:30;34.60;;;17.60;;
3337;SDS011;1682;49.286;10.788;2022-12-18T07:20:57;24.57;;;14.57;;
3337;SDS011;1682;49.286;10.788;2022-12-18T07:23:24;39.97;;;20.20;;
3337;SDS011;1682;49.286;10.788;2022-12-18T07:25:52;28.00;;;15.10;;
3337;SDS011;1682;49.286;10.788;2022-12-18T07:28:20;27.80;;;14.60;;
3337;SDS011;1682;49.286;10.788;2022-12-18T07:30:48;41.77;;;18.77;;
3337;SDS011;1682;49.286;10.788;2022-12-18T07:33:16;35.50;;;16.83;;
3337;SDS011;1682;49.286;10.788;2022-12-18T07:35:43;31.00;;;16.40;;
3337;SDS011;1682;49.286;10.788;2022-12-18T07:38:10;32.23;;;15.47;;
3337;SDS011;1682;49.286;10.788;2022-12-18T07:40:37;33.47;;;15.83;;
3337;SDS011;1682;49.286;10.788;2022-12-18T07:43:05;34.67;;;17.30;;
3337;SDS011;1682;49.286;10.788;2022-12-18T07:45:33;36.20;;;17.83;;
3337;SDS011;1682;49.286;10.788;2022-12-18T07:48:01;31.73;;;16.07;;
3337;SDS011;1682;49.286;10.788;2022-12-18T07:50:28;32.27;;;16.93;;
3337;SDS011;1682;49.286;10.788;2022-12-18T07:52:55;31.73;;;15.77;;
3337;SDS011;1682;49.286;10.788;2022-12-18T07:55:23;29.43;;;14.17;;
3337;SDS011;1682;49.286;10.788;2022-12-18T07:57:51;36.93;;;19.40;;
3337;SDS011;1682;49.286;10.788;2022-12-18T08:00:18;27.23;;;17.70;;
3337;SDS011;1682;49.286;10.788;2022-12-18T08:02:47;33.50;;;16.73;;
3337;SDS011;1682;49.286;10.788;2022-12-18T08:05:14;29.03;;;14.70;;
3337;SDS011;1682;49.286;10.788;2022-12-18T08:07:41;23.50;;;13.50;;
3337;SDS011;1682;49.286;10.788;2022-12-18T08:10:09;31.80;;;15.73;;
3337;SDS011;1682;49.286;10.788;2022-12-18T08:12:36;26.20;;;15.07;;
3337;SDS011;1682;49.286;10.788;2022-12-18T08:15:04;25.50;;;13.80;;
3337;SDS011;1682;49.286;10.788;2022-12-18T08:17:33;29.23;;;15.13;;
3337;SDS011;1682;49.286;10.788;2022-12-18T08:20:01;25.13;;;12.47;;
3337;SDS011;1682;49.286;10.788;2022-12-18T08:22:29;30.73;;;13.67;;
3337;SDS011;1682;49.286;10.788;2022-12-18T08:24:56;31.87;;;13.40;;
3337;SDS011;1682;49.286;10.788;2022-12-18T08:27:23;27.03;;;13.77;;
3337;SDS011;1682;49.286;10.788;2022-12-18T08:29:51;22.40;;;13.60;;
3337;SDS011;1682;49.286;10.788;2022-12-18T08:32:18;42.20;;;17.30;;
3337;SDS011;1682;49.286;10.788;2022-12-18T08:34:45;30.03;;;14.10;;
3337;SDS011;1682;49.286;10.788;2022-12-18T08:37:14;30.70;;;12.97;;
3337;SDS011;1682;49.286;10.788;2022-12-18T08:39:41;28.97;;;15.30;;
3337;SDS011;1682;49.286;10.788;2022-12-18T08:42:08;19.43;;;10.23;;
3337;SDS011;1682;49.286;10.788;2022-12-18T08:44:53;24.70;;;14.43;;
3337;SDS011;1682;49.286;10.788;2022-12-18T08:47:20;27.00;;;12.50;;
3337;SDS011;1682;49.286;10.788;2022-12-18T08:49:47;32.33;;;13.73;;
3337;SDS011;1682;49.286;10.788;2022-12-18T08:52:16;22.57;;;13.33;;
3337;SDS011;1682;49.286;10.788;2022-12-18T08:54:43;26.73;;;11.03;;
3337;SDS011;1682;49.286;10.788;2022-12-18T08:57:10;17.33;;;9.63;;
3337;SDS011;1682;49.286;10.788;2022-12-18T08:59:38;26.03;;;10.17;;
3337;SDS011;1682;49.286;10.788;2022-12-18T09:02:05;17.33;;;9.57;;
3337;SDS011;1682;49.286;10.788;2022-12-18T09:04:32;15.23;;;10.53;;
3337;SDS011;1682;49.286;10.788;2022-12-18T09:07:00;18.00;;;9.30;;
3337;SDS011;1682;49.286;10.788;2022-12-18T09:09:38;15.03;;;10.10;;
3337;SDS011;1682;49.286;10.788;2022-12-18T09:12:14;13.77;;;9.20;;
3337;SDS011;1682;49.286;10.788;2022-12-18T09:14:41;22.10;;;10.37;;
3337;SDS011;1682;49.286;10.788;2022-12-18T09:17:09;24.83;;;14.97;;
3337;SDS011;1682;49.286;10.788;2022-12-18T09:19:36;33.80;;;14.20;;
3337;SDS011;1682;49.286;10.788;2022-12-18T09:22:04;19.10;;;9.67;;
3337;SDS011;1682;49.286;10.788;2022-12-18T09:24:31;18.47;;;11.10;;
3337;SDS011;1682;49.286;10.788;2022-12-18T09:26:59;23.43;;;12.60;;
3337;SDS011;1682;49.286;10.788;2022-12-18T09:29:27;16.70;;;7.73;;
3337;SDS011;1682;49.286;10.788;2022-12-18T09:31:54;20.27;;;10.00;;
3337;SDS011;1682;49.286;10.788;2022-12-18T09:34:21;20.00;;;10.50;;
3337;SDS011;1682;49.286;10.788;2022-12-18T09:36:49;14.27;;;8.40;;
3337;SDS011;1682;49.286;10.788;2022-12-18T09:39:16;19.67;;;11.37;;
3337;SDS011;1682;49.286;10.788;2022-12-18T09:41:44;18.20;;;11.53;;
3337;SDS011;1682;49.286;10.788;2022-12-18T09:44:16;15.83;;;9.47;;
3337;SDS011;1682;49.286;10.788;2022-12-18T09:46:46;19.83;;;10.50;;
3337;SDS011;1682;49.286;10.788;2022-12-18T09:49:14;28.10;;;12.60;;
3337;SDS011;1682;49.286;10.788;2022-12-18T09:51:43;15.30;;;8.83;;
3337;SDS011;1682;49.286;10.788;2022-12-18T09:54:12;20.50;;;10.97;;
3337;SDS011;1682;49.286;10.788;2022-12-18T09:56:41;15.03;;;9.57;;
3337;SDS011;1682;49.286;10.788;2022-12-18T09:59:16;24.23;;;13.60;;
3337;SDS011;1682;49.286;10.788;2022-12-18T10:01:45;22.53;;;10.97;;
3337;SDS011;1682;49.286;10.788;2022-12-18T10:04:12;24.47;;;12.53;;
3337;SDS011;1682;49.286;10.788;2022-12-18T10:06:41;21.13;;;9.00;;
3337;SDS011;1682;49.286;10.788;2022-12-18T10:09:11;19.10;;;9.00;;
3337;SDS011;1682;49.286;10.788;2022-12-18T10:11:46;22.57;;;9.20;;
3337;SDS011;1682;49.286;10.788;2022-12-18T10:14:17;20.83;;;10.20;;
3337;SDS011;1682;49.286;10.788;2022-12-18T10:16:49;11.10;;;8.20;;
3337;SDS011;1682;49.286;10.788;2022-12-18T10:19:21;17.93;;;11.10;;
3337;SDS011;1682;49.286;10.788;2022-12-18T10:21:51;18.83;;;9.90;;
3337;SDS011;1682;49.286;10.788;2022-12-18T10:24:24;16.50;;;9.37;;
3337;SDS011;1682;49.286;10.788;2022-12-18T10:26:54;16.53;;;7.97;;
3337;SDS011;1682;49.286;10.788;2022-12-18T10:29:24;14.93;;;9.30;;
3337;SDS011;1682;49.286;10.788;2022-12-18T10:31:52;16.00;;;9.77;;
3337;SDS011;1682;49.286;10.788;2022-12-18T10:34:19;17.30;;;9.43;;
3337;SDS011;1682;49.286;10.788;2022-12-18T10:36:47;24.20;;;8.93;;
3337;SDS011;1682;49.286;10.788;2022-12-18T10:39:15;14.70;;;9.00;;
3337;SDS011;1682;49.286;10.788;2022-12-18T10:41:42;17.13;;;10.27;;
3337;SDS011;1682;49.286;10.788;2022-12-18T10:44:11;13.70;;;7.67;;
3337;SDS011;1682;49.286;10.788;2022-12-18T10:46:40;15.07;;;10.37;;
3337;SDS011;1682;49.286;10.788;2022-12-18T10:49:17;18.03;;;8.17;;
3337;SDS011;1682;49.286;10.788;2022-12-18T10:51:44;19.10;;;10.80;;
3337;SDS011;1682;49.286;10.788;2022-12-18T10:54:13;22.03;;;10.37;;
3337;SDS011;1682;49.286;10.788;2022-12-18T10:56:41;10.93;;;8.57;;
3337;SDS011;1682;49.286;10.788;2022-12-18T10:59:10;17.23;;;9.63;;
3337;SDS011;1682;49.286;10.788;2022-12-18T11:04:22;13.83;;;9.97;;
3337;SDS011;1682;49.286;10.788;2022-12-18T11:06:56;17.93;;;10.37;;
3337;SDS011;1682;49.286;10.788;2022-12-18T11:09:24;18.80;;;10.20;;
3337;SDS011;1682;49.286;10.788;2022-12-18T11:11:53;18.73;;;9.03;;
3337;SDS011;1682;49.286;10.788;2022-12-18T11:14:21;20.13;;;9.90;;
3337;SDS011;1682;49.286;10.788;2022-12-18T11:16:49;15.63;;;10.43;;
3337;SDS011;1682;49.286;10.788;2022-12-18T11:19:20;22.97;;;12.43;;
3337;SDS011;1682;49.286;10.788;2022-12-18T11:21:56;20.97;;;11.00;;
3337;SDS011;1682;49.286;10.788;2022-12-18T11:24:25;23.30;;;11.27;;
3337;SDS011;1682;49.286;10.788;2022-12-18T11:26:57;17.57;;;10.57;;
3337;SDS011;1682;49.286;10.788;2022-12-18T11:29:28;23.30;;;11.00;;
3337;SDS011;1682;49.286;10.788;2022-12-18T11:32:13;20.37;;;10.27;;
3337;SDS011;1682;49.286;10.788;2022-12-18T11:34:48;15.40;;;11.03;;
3337;SDS011;1682;49.286;10.788;2022-12-18T11:37:18;16.80;;;10.00;;
3337;SDS011;1682;49.286;10.788;2022-12-18T11:39:46;21.90;;;9.50;;
3337;SDS011;1682;49.286;10.788;2022-12-18T11:42:17;30.43;;;15.13;;
3337;SDS011;1682;49.286;10.788;2022-12-18T11:44:46;22.83;;;11.30;;
3337;SDS011;1682;49.286;10.788;2022-12-18T11:47:18;14.07;;;8.93;;
3337;SDS011;1682;49.286;10.788;2022-12-18T11:49:46;16.00;;;9.77;;
3337;SDS011;1682;49.286;10.788;2022-12-18T11:52:15;23.30;;;12.87;;
3337;SDS011;1682;49.286;10.788;2022-12-18T11:54:44;17.17;;;8.90;;
3337;SDS011;1682;49.286;10.788;2022-12-18T11:57:14;14.80;;;10.23;;
3337;SDS011;1682;49.286;10.788;2022-12-18T11:59:44;19.60;;;10.97;;
3337;SDS011;1682;49.286;10.788;2022-12-18T12:02:19;13.67;;;8.93;;
3337;SDS011;1682;49.286;10.788;2022-12-18T12:04:58;18.90;;;10.70;;
3337;SDS011;1682;49.286;10.788;2022-12-18T12:07:33;15.83;;;9.23;;
3337;SDS011;1682;49.286;10.788;2022-12-18T12:10:07;19.00;;;9.70;;
3337;SDS011;1682;49.286;10.788;2022-12-18T12:12:44;16.13;;;10.47;;
3337;SDS011;1682;49.286;10.788;2022-12-18T12:15:21;19.57;;;10.10;;
3337;SDS011;1682;49.286;10.788;2022-12-18T12:17:50;14.87;;;9.30;;
3337;SDS011;1682;49.286;10.788;2022-12-18T12:20:20;14.37;;;9.90;;
3337;SDS011;1682;49.286;10.788;2022-12-18T12:22:50;17.30;;;10.67;;
3337;SDS011;1682;49.286;10.788;2022-12-18T12:25:28;18.43;;;11.40;;
3337;SDS011;1682;49.286;10.788;2022-12-18T12:28:00;20.07;;;10.53;;
3337;SDS011;1682;49.286;10.788;2022-12-18T12:30:30;11.20;;;8.90;;
3337;SDS011;1682;49.286;10.788;2022-12-18T12:33:08;25.43;;;12.40;;
3337;SDS011;1682;49.286;10.788;2022-12-18T12:35:42;20.70;;;10.23;;
3337;SDS011;1682;49.286;10.788;2022-12-18T12:38:12;22.47;;;12.80;;
3337;SDS011;1682;49.286;10.788;2022-12-18T12:40:42;19.30;;;10.30;;
3337;SDS011;1682;49.286;10.788;2022-12-18T12:43:16;16.40;;;10.10;;
3337;SDS011;1682;49.286;10.788;2022-12-18T12:45:47;19.60;;;10.40;;
3337;SDS011;1682;49.286;10.788;2022-12-18T12:48:16;16.13;;;11.20;;
3337;SDS011;1682;49.286;10.788;2022-12-18T12:50:45;16.53;;;11.60;;
3337;SDS011;1682;49.286;10.788;2022-12-18T12:53:15;23.00;;;11.50;;
3337;SDS011;1682;49.286;10.788;2022-12-18T12:55:45;18.20;;;9.57;;
3337;SDS011;1682;49.286;10.788;2022-12-18T12:58:14;22.53;;;12.87;;
3337;SDS011;1682;49.286;10.788;2022-12-18T13:00:44;17.40;;;10.50;;
3337;SDS011;1682;49.286;10.788;2022-12-18T13:03:15;28.53;;;12.33;;
3337;SDS011;1682;49.286;10.788;2022-12-18T13:05:45;15.57;;;11.10;;
3337;SDS011;1682;49.286;10.788;2022-12-18T13:08:21;22.40;;;10.33;;
3337;SDS011;1682;49.286;10.788;2022-12-18T13:10:51;16.13;;;8.83;;
3337;SDS011;1682;49.286;10.788;2022-12-18T13:13:47;14.20;;;8.37;;
3337;SDS011;1682;49.286;10.788;2022-12-18T13:16:14;12.30;;;7.43;;
3337;SDS011;1682;49.286;10.788;2022-12-18T13:18:48;22.03;;;10.30;;
3337;SDS011;1682;49.286;10.788;2022-12-18T13:21:18;15.20;;;9.20;;
3337;SDS011;1682;49.286;10.788;2022-12-18T13:23:48;18.70;;;10.47;;
3337;SDS011;1682;49.286;10.788;2022-12-18T13:26:29;22.90;;;10.77;;
3337;SDS011;1682;49.286;10.788;2022-12-18T13:28:58;23.47;;;15.87;;
3337;SDS011;1682;49.286;10.788;2022-12-18T13:34:15;19.40;;;12.13;;
3337;SDS011;1682;49.286;10.788;2022-12-18T13:36:43;21.17;;;10.80;;
3337;SDS011;1682;49.286;10.788;2022-12-18T13:45:00;17.80;;;10.03;;
3337;SDS011;1682;49.286;10.788;2022-12-18T13:47:31;16.40;;;11.00;;
3337;SDS011;1682;49.286;10.788;2022-12-18T13:49:59;17.40;;;9.97;;
3337;SDS011;1682;49.286;10.788;2022-12-18T13:52:27;21.10;;;10.17;;
3337;SDS011;1682;49.286;10.788;2022-12-18T13:54:56;19.63;;;9.97;;
3337;SDS011;1682;49.286;10.788;2022-12-18T13:57:26;20.20;;;11.13;;
3337;SDS011;1682;49.286;10.788;2022-12-18T13:59:53;16.23;;;10.00;;
3337;SDS011;1682;49.286;10.788;2022-12-18T14:02:22;16.50;;;10.27;;
3337;SDS011;1682;49.286;10.788;2022-12-18T14:04:50;19.50;;;11.87;;
3337;SDS011;1682;49.286;10.788;2022-12-18T14:07:18;26.97;;;12.33;;
3337;SDS011;1682;49.286;10.788;2022-12-18T14:09:47;21.03;;;11.47;;
3337;SDS011;1682;49.286;10.788;2022-12-18T14:12:17;15.37;;;8.93;;
3337;SDS011;1682;49.286;10.788;2022-12-18T14:15:16;18.70;;;9.77;;
3337;SDS011;1682;49.286;10.788;2022-12-18T14:17:49;16.40;;;9.43;;
3337;SDS011;1682;49.286;10.788;2022-12-18T14:20:16;22.90;;;11.87;;
3337;SDS011;1682;49.286;10.788;2022-12-18T14:22:44;21.03;;;10.07;;
3337;SDS011;1682;49.286;10.788;2022-12-18T14:25:14;20.63;;;11.00;;
3337;SDS011;1682;49.286;10.788;2022-12-18T14:27:42;13.33;;;9.50;;
3337;SDS011;1682;49.286;10.788;2022-12-18T14:30:25;30.77;;;13.17;;
3337;SDS011;1682;49.286;10.788;2022-12-18T14:33:01;21.60;;;13.10;;
3337;SDS011;1682;49.286;10.788;2022-12-18T14:35:28;17.07;;;11.47;;
3337;SDS011;1682;49.286;10.788;2022-12-18T14:38:08;20.77;;;10.90;;
3337;SDS011;1682;49.286;10.788;2022-12-18T14:40:36;20.03;;;12.53;;
3337;SDS011;1682;49.286;10.788;2022-12-18T14:43:03;23.07;;;11.00;;
3337;SDS011;1682;49.286;10.788;2022-12-18T14:45:34;20.80;;;11.70;;
3337;SDS011;1682;49.286;10.788;2022-12-18T14:48:07;22.17;;;12.07;;
3337;SDS011;1682;49.286;10.788;2022-12-18T14:50:35;26.33;;;11.40;;
3337;SDS011;1682;49.286;10.788;2022-12-18T14:53:02;29.30;;;12.57;;
3337;SDS011;1682;49.286;10.788;2022-12-18T14:55:29;13.90;;;10.30;;
3337;SDS011;1682;49.286;10.788;2022-12-18T14:57:57;23.90;;;13.00;;
3337;SDS011;1682;49.286;10.788;2022-12-18T15:00:24;20.47;;;10.87;;